createdAt,value
2022-11-06T00:00:12.507Z,8
2022-11-06T00:01:16.050Z,8
2022-11-06T00:02:23.189Z,7.9
2022-11-06T00:03:27.675Z,7.9
2022-11-06T00:04:30.897Z,7.9
2022-11-06T00:05:34.319Z,7.9
2022-11-06T00:06:37.431Z,7.8
2022-11-06T00:07:40.810Z,7.9
2022-11-06T00:08:43.648Z,7.9
2022-11-06T00:09:46.923Z,7.9
2022-11-06T00:10:49.358Z,7.9
2022-11-06T00:11:52.655Z,7.9
2022-11-06T00:12:54.892Z,7.9
2022-11-06T00:13:58.168Z,7.9
2022-11-06T00:15:00.884Z,7.9
2022-11-06T00:16:03.611Z,7.8
2022-11-06T00:17:06.746Z,7.9
2022-11-06T00:18:10.545Z,7.9
2022-11-06T00:19:14.252Z,7.8
2022-11-06T00:20:18.484Z,7.8
2022-11-06T00:21:20.926Z,7.8
2022-11-06T00:22:24.563Z,7.8
2022-11-06T00:23:28.018Z,7.8
2022-11-06T00:24:30.964Z,7.8
2022-11-06T00:25:33.769Z,7.8
2022-11-06T00:26:37.128Z,7.8
2022-11-06T00:27:39.943Z,7.8
2022-11-06T00:28:42.820Z,7.8
2022-11-06T00:29:46.289Z,7.8
2022-11-06T00:30:49.084Z,7.8
2022-11-06T00:31:51.338Z,7.8
2022-11-06T00:32:54.421Z,7.8
2022-11-06T00:33:57.561Z,7.8
2022-11-06T00:35:00.358Z,7.7
2022-11-06T00:36:03.713Z,7.7
2022-11-06T00:37:07.145Z,7.7
2022-11-06T00:38:09.839Z,7.7
2022-11-06T00:39:14.104Z,7.7
2022-11-06T00:40:17.678Z,7.6
2022-11-06T00:41:20.666Z,7.6
2022-11-06T00:42:23.932Z,7.6
2022-11-06T00:43:27.042Z,7.6
2022-11-06T00:44:29.864Z,7.6
2022-11-06T00:45:33.131Z,7.6
2022-11-06T00:46:36.237Z,7.6
2022-11-06T00:47:39.502Z,7.6
2022-11-06T00:48:42.423Z,7.6
2022-11-06T00:49:46.182Z,7.5
2022-11-06T00:50:49.738Z,7.5
2022-11-06T00:51:52.185Z,7.5
2022-11-06T00:52:55.333Z,7.5
2022-11-06T00:53:59.360Z,7.6
2022-11-06T00:55:02.836Z,7.6
2022-11-06T00:56:05.656Z,7.6
2022-11-06T00:57:09.283Z,7.5
2022-11-06T00:58:14.483Z,7.6
2022-11-06T00:59:18.088Z,7.5
2022-11-06T01:00:21.102Z,7.5
2022-11-06T01:01:25.396Z,7.5
2022-11-06T01:02:30.240Z,7.5
2022-11-06T01:03:32.785Z,7.5
2022-11-06T01:04:35.988Z,7.6
2022-11-06T01:05:39.440Z,7.6
2022-11-06T01:06:42.554Z,7.6
2022-11-06T01:07:45.908Z,7.6
2022-11-06T01:08:48.620Z,7.6
2022-11-06T01:09:52.100Z,7.5
2022-11-06T01:10:55.200Z,7.5
2022-11-06T01:12:15.944Z,7.5
2022-11-06T01:13:18.852Z,7.6
2022-11-06T01:14:21.403Z,7.6
2022-11-06T01:15:24.757Z,7.6
2022-11-06T01:16:27.864Z,7.6
2022-11-06T01:17:30.126Z,7.6
2022-11-06T01:18:32.933Z,7.5
2022-11-06T01:19:35.935Z,7.5
2022-11-06T01:20:38.941Z,7.5
2022-11-06T01:21:42.298Z,7.6
2022-11-06T01:22:45.433Z,7.5
2022-11-06T01:23:47.880Z,7.5
2022-11-06T01:24:51.218Z,7.5
2022-11-06T01:25:54.728Z,7.5
2022-11-06T01:27:28.852Z,7.5
2022-11-06T01:28:32.557Z,7.4
2022-11-06T01:29:35.967Z,7.4
2022-11-06T01:30:39.399Z,7.4
2022-11-06T01:31:42.383Z,7.4
2022-11-06T01:32:45.281Z,7.4
2022-11-06T01:33:48.694Z,7.3
2022-11-06T01:34:51.595Z,7.3
2022-11-06T01:35:54.466Z,7.3
2022-11-06T01:36:57.546Z,7.3
2022-11-06T01:38:01.244Z,7.3
2022-11-06T01:39:04.584Z,7.3
2022-11-06T01:40:07.021Z,7.3
2022-11-06T01:41:10.509Z,7.3
2022-11-06T01:42:13.927Z,7.4
2022-11-06T01:43:16.995Z,7.4
2022-11-06T01:44:20.371Z,7.4
2022-11-06T01:45:22.833Z,7.4
2022-11-06T01:46:25.323Z,7.3
2022-11-06T01:47:28.777Z,7.3
2022-11-06T01:48:31.635Z,7.3
2022-11-06T01:49:34.630Z,7.3
2022-11-06T01:50:37.707Z,7.3
2022-11-06T01:51:40.514Z,7.3
2022-11-06T01:52:44.169Z,7.3
2022-11-06T01:53:47.072Z,7.3
2022-11-06T01:54:49.876Z,7.3
2022-11-06T01:55:53.158Z,7.3
2022-11-06T01:56:56.053Z,7.4
2022-11-06T01:57:59.243Z,7.4
2022-11-06T01:59:01.958Z,7.4
2022-11-06T02:00:05.657Z,7.4
2022-11-06T02:01:08.854Z,7.4
2022-11-06T02:02:12.428Z,7.4
2022-11-06T02:03:15.974Z,7.3
2022-11-06T02:04:19.772Z,7.4
2022-11-06T02:05:23.245Z,7.4
2022-11-06T02:06:26.090Z,7.4
2022-11-06T02:07:28.696Z,7.3
2022-11-06T02:08:31.492Z,7.3
2022-11-06T02:09:34.981Z,7.3
2022-11-06T02:10:37.700Z,7.4
2022-11-06T02:11:40.503Z,7.4
2022-11-06T02:12:43.605Z,7.4
2022-11-06T02:13:47.433Z,7.4
2022-11-06T02:14:50.300Z,7.4
2022-11-06T02:15:53.846Z,7.4
2022-11-06T02:16:57.021Z,7.4
2022-11-06T02:18:00.016Z,7.4
2022-11-06T02:19:02.567Z,7.4
2022-11-06T02:20:05.705Z,7.4
2022-11-06T02:21:08.709Z,7.4
2022-11-06T02:22:10.949Z,7.5
2022-11-06T02:23:13.779Z,7.4
2022-11-06T02:24:16.590Z,7.5
2022-11-06T02:25:19.759Z,7.4
2022-11-06T02:26:22.888Z,7.4
2022-11-06T02:27:25.136Z,7.4
2022-11-06T02:28:27.949Z,7.4
2022-11-06T02:29:31.401Z,7.4
2022-11-06T02:30:34.552Z,7.5
2022-11-06T02:31:38.027Z,7.5
2022-11-06T02:32:41.321Z,7.5
2022-11-06T02:33:44.772Z,7.5
2022-11-06T02:34:48.136Z,7.4
2022-11-06T02:35:51.208Z,7.5
2022-11-06T02:36:54.271Z,7.5
2022-11-06T02:37:58.013Z,7.5
2022-11-06T02:39:01.575Z,7.5
2022-11-06T02:40:04.097Z,7.5
2022-11-06T02:41:07.183Z,7.5
2022-11-06T02:42:09.414Z,7.4
2022-11-06T02:43:12.219Z,7.5
2022-11-06T02:44:14.680Z,7.5
2022-11-06T02:45:18.297Z,7.5
2022-11-06T02:46:21.020Z,7.5
2022-11-06T02:47:24.472Z,7.5
2022-11-06T02:48:28.013Z,7.6
2022-11-06T02:49:31.002Z,7.5
2022-11-06T02:50:34.106Z,7.6
2022-11-06T02:51:37.261Z,7.6
2022-11-06T02:52:39.855Z,7.6
2022-11-06T02:53:42.395Z,7.6
2022-11-06T02:54:45.821Z,7.6
2022-11-06T02:55:48.976Z,7.6
2022-11-06T02:56:52.136Z,7.6
2022-11-06T02:57:55.215Z,7.6
2022-11-06T02:58:58.090Z,7.6
2022-11-06T03:00:01.554Z,7.6
2022-11-06T03:01:05.214Z,7.6
2022-11-06T03:02:08.855Z,7.6
2022-11-06T03:03:12.353Z,7.6
2022-11-06T03:04:15.065Z,7.6
2022-11-06T03:05:17.848Z,7.6
2022-11-06T03:06:21.298Z,7.7
2022-11-06T03:07:24.221Z,7.6
2022-11-06T03:08:26.658Z,7.6
2022-11-06T03:09:29.176Z,7.7
2022-11-06T03:10:31.905Z,7.7
2022-11-06T03:11:34.620Z,7.6
2022-11-06T03:12:37.785Z,7.7
2022-11-06T03:13:40.851Z,7.7
2022-11-06T03:14:43.091Z,7.6
2022-11-06T03:15:46.032Z,7.6
2022-11-06T03:16:49.145Z,7.6
2022-11-06T03:17:52.212Z,7.7
2022-11-06T03:18:55.429Z,7.7
2022-11-06T03:19:58.183Z,7.7
2022-11-06T03:21:01.287Z,7.7
2022-11-06T03:22:04.982Z,7.7
2022-11-06T03:23:08.735Z,7.7
2022-11-06T03:24:11.946Z,7.7
2022-11-06T03:25:14.745Z,7.8
2022-11-06T03:26:18.257Z,7.7
2022-11-06T03:27:21.446Z,7.7
2022-11-06T03:28:24.836Z,7.7
2022-11-06T03:29:27.660Z,7.7
2022-11-06T03:30:30.369Z,7.7
2022-11-06T03:31:33.484Z,7.7
2022-11-06T03:32:37.252Z,7.7
2022-11-06T03:33:40.330Z,7.7
2022-11-06T03:34:44.430Z,7.7
2022-11-06T03:35:47.172Z,7.7
2022-11-06T03:36:50.229Z,7.7
2022-11-06T03:37:53.694Z,7.7
2022-11-06T03:38:56.509Z,7.7
2022-11-06T03:39:59.051Z,7.7
2022-11-06T03:41:02.111Z,7.7
2022-11-06T03:42:05.685Z,7.7
2022-11-06T03:43:08.510Z,7.7
2022-11-06T03:44:11.724Z,7.7
2022-11-06T03:45:13.878Z,7.6
2022-11-06T03:46:17.217Z,7.6
2022-11-06T03:47:20.060Z,7.6
2022-11-06T03:48:23.261Z,7.7
2022-11-06T03:49:26.336Z,7.7
2022-11-06T03:50:29.943Z,7.7
2022-11-06T03:51:32.758Z,7.6
2022-11-06T03:52:35.613Z,7.6
2022-11-06T03:53:38.928Z,7.7
2022-11-06T03:54:42.101Z,7.7
2022-11-06T03:55:44.350Z,7.6
2022-11-06T03:56:47.344Z,7.6
2022-11-06T03:57:50.450Z,7.6
2022-11-06T03:58:54.841Z,7.6
2022-11-06T03:59:58.239Z,7.6
2022-11-06T04:01:01.594Z,7.6
2022-11-06T04:02:05.618Z,7.6
2022-11-06T04:03:09.043Z,7.6
2022-11-06T04:04:12.354Z,7.7
2022-11-06T04:05:15.131Z,7.6
2022-11-06T04:06:18.561Z,7.6
2022-11-06T04:07:21.287Z,7.6
2022-11-06T04:08:23.997Z,7.6
2022-11-06T04:09:26.936Z,7.6
2022-11-06T04:10:30.031Z,7.6
2022-11-06T04:11:32.825Z,7.6
2022-11-06T04:12:35.814Z,7.6
2022-11-06T04:13:38.912Z,7.6
2022-11-06T04:14:41.900Z,7.6
2022-11-06T04:15:45.148Z,7.6
2022-11-06T04:16:47.950Z,7.5
2022-11-06T04:17:51.025Z,7.5
2022-11-06T04:18:54.110Z,7.5
2022-11-06T04:19:57.843Z,7.5
2022-11-06T04:21:00.932Z,7.5
2022-11-06T04:22:04.632Z,7.5
2022-11-06T04:23:08.000Z,7.5
2022-11-06T04:24:11.227Z,7.6
2022-11-06T04:25:14.593Z,7.5
2022-11-06T04:26:17.577Z,7.5
2022-11-06T04:27:20.576Z,7.5
2022-11-06T04:28:23.932Z,7.5
2022-11-06T04:29:27.653Z,7.5
2022-11-06T04:30:30.439Z,7.5
2022-11-06T04:31:33.737Z,7.5
2022-11-06T04:32:37.107Z,7.4
2022-11-06T04:33:40.176Z,7.5
2022-11-06T04:34:42.732Z,7.5
2022-11-06T04:35:46.212Z,7.5
2022-11-06T04:36:49.487Z,7.5
2022-11-06T04:37:52.377Z,7.5
2022-11-06T04:38:54.655Z,7.4
2022-11-06T04:39:57.716Z,7.4
2022-11-06T04:41:00.537Z,7.5
2022-11-06T04:42:03.324Z,7.5
2022-11-06T04:43:05.835Z,7.5
2022-11-06T04:44:08.794Z,7.4
2022-11-06T04:45:11.888Z,7.4
2022-11-06T04:46:15.035Z,7.5
2022-11-06T04:47:17.989Z,7.5
2022-11-06T04:48:21.067Z,7.5
2022-11-06T04:49:23.855Z,7.5
2022-11-06T04:50:26.399Z,7.5
2022-11-06T04:51:30.184Z,7.5
2022-11-06T04:52:32.694Z,7.5
2022-11-06T04:53:36.737Z,7.4
2022-11-06T04:54:39.617Z,7.4
2022-11-06T04:55:42.331Z,7.5
2022-11-06T04:56:48.579Z,7.4
2022-11-06T04:57:51.645Z,7.4
2022-11-06T04:58:55.030Z,7.4
2022-11-06T04:59:58.561Z,7.3
2022-11-06T05:01:02.278Z,7.4
2022-11-06T05:02:06.248Z,7.4
2022-11-06T05:03:10.070Z,7.3
2022-11-06T05:04:13.165Z,7.3
2022-11-06T05:05:15.960Z,7.3
2022-11-06T05:06:19.705Z,7.3
2022-11-06T05:07:22.618Z,7.3
2022-11-06T05:08:25.881Z,7.3
2022-11-06T05:09:29.604Z,7.3
2022-11-06T05:10:33.254Z,7.3
2022-11-06T05:11:35.700Z,7.3
2022-11-06T05:12:38.871Z,7.3
2022-11-06T05:13:40.754Z,7.4
2022-11-06T05:14:43.944Z,7.4
2022-11-06T05:15:47.290Z,7.3
2022-11-06T05:16:50.465Z,7.4
2022-11-06T05:17:53.843Z,7.4
2022-11-06T05:18:57.211Z,7.4
2022-11-06T05:20:00.640Z,7.4
2022-11-06T05:21:03.431Z,7.4
2022-11-06T05:22:06.538Z,7.4
2022-11-06T05:23:09.994Z,7.4
2022-11-06T05:24:12.498Z,7.4
2022-11-06T05:25:15.465Z,7.4
2022-11-06T05:26:18.619Z,7.4
2022-11-06T05:27:21.322Z,7.4
2022-11-06T05:28:24.061Z,7.4
2022-11-06T05:29:26.862Z,7.4
2022-11-06T05:30:29.405Z,7.4
2022-11-06T05:31:31.619Z,7.5
2022-11-06T05:32:33.623Z,7.4
2022-11-06T05:33:36.428Z,7.5
2022-11-06T05:34:39.602Z,7.5
2022-11-06T05:35:42.414Z,7.5
2022-11-06T05:36:45.480Z,7.5
2022-11-06T05:37:48.878Z,7.5
2022-11-06T05:38:51.982Z,7.5
2022-11-06T05:39:54.234Z,7.6
2022-11-06T05:40:57.687Z,7.6
2022-11-06T05:42:01.233Z,7.6
2022-11-06T05:43:04.720Z,7.6
2022-11-06T05:44:07.822Z,7.6
2022-11-06T05:45:10.624Z,7.6
2022-11-06T05:46:51.008Z,7.5
2022-11-06T05:47:54.162Z,7.6
2022-11-06T05:48:57.154Z,7.6
2022-11-06T05:50:00.324Z,7.5
2022-11-06T05:51:02.758Z,7.6
2022-11-06T05:52:06.488Z,7.6
2022-11-06T05:53:09.499Z,7.6
2022-11-06T05:54:12.707Z,7.6
2022-11-06T05:55:16.787Z,7.6
2022-11-06T05:56:20.171Z,7.6
2022-11-06T05:57:23.255Z,7.6
2022-11-06T05:58:26.623Z,7.6
2022-11-06T05:59:29.088Z,7.6
2022-11-06T06:00:31.961Z,7.7
2022-11-06T06:01:36.228Z,7.6
2022-11-06T06:02:40.570Z,7.6
2022-11-06T06:03:44.016Z,7.6
2022-11-06T06:04:46.978Z,7.6
2022-11-06T06:05:50.444Z,7.6
2022-11-06T06:06:53.043Z,7.7
2022-11-06T06:07:56.243Z,7.7
2022-11-06T06:08:59.575Z,7.6
2022-11-06T06:10:02.776Z,7.7
2022-11-06T06:11:05.836Z,7.6
2022-11-06T06:12:09.136Z,7.6
2022-11-06T06:13:11.586Z,7.6
2022-11-06T06:14:15.014Z,7.6
2022-11-06T06:15:17.475Z,7.6
2022-11-06T06:16:20.053Z,7.6
2022-11-06T06:17:23.188Z,7.6
2022-11-06T06:18:26.015Z,7.6
2022-11-06T06:19:28.850Z,7.6
2022-11-06T06:20:31.567Z,7.6
2022-11-06T06:21:34.749Z,7.6
2022-11-06T06:22:37.988Z,7.6
2022-11-06T06:23:41.436Z,7.5
2022-11-06T06:24:45.242Z,7.5
2022-11-06T06:25:48.852Z,7.5
2022-11-06T06:26:51.943Z,7.6
2022-11-06T06:27:55.458Z,7.5
2022-11-06T06:28:58.275Z,7.5
2022-11-06T06:30:01.542Z,7.5
2022-11-06T06:31:04.642Z,7.5
2022-11-06T06:32:07.757Z,7.5
2022-11-06T06:33:11.186Z,7.5
2022-11-06T06:34:13.789Z,7.5
2022-11-06T06:35:16.607Z,7.5
2022-11-06T06:36:19.604Z,7.5
2022-11-06T06:37:22.853Z,7.5
2022-11-06T06:38:26.126Z,7.5
2022-11-06T06:39:28.914Z,7.5
2022-11-06T06:40:32.239Z,7.4
2022-11-06T06:41:35.789Z,7.5
2022-11-06T06:42:38.861Z,7.5
2022-11-06T06:43:41.957Z,7.5
2022-11-06T06:44:44.922Z,7.5
2022-11-06T06:45:48.336Z,7.5
2022-11-06T06:46:51.222Z,7.5
2022-11-06T06:47:53.674Z,7.5
2022-11-06T06:48:56.790Z,7.6
2022-11-06T06:49:59.503Z,7.6
2022-11-06T06:51:02.974Z,7.6
2022-11-06T06:52:06.125Z,7.6
2022-11-06T06:53:09.500Z,7.6
2022-11-06T06:54:12.604Z,7.6
2022-11-06T06:55:15.427Z,7.6
2022-11-06T06:56:17.983Z,7.6
2022-11-06T06:57:20.893Z,7.6
2022-11-06T06:58:26.477Z,7.6
2022-11-06T06:59:29.428Z,7.6
2022-11-06T07:00:32.814Z,7.6
2022-11-06T07:01:36.582Z,7.6
2022-11-06T07:02:39.795Z,7.6
2022-11-06T07:03:42.512Z,7.6
2022-11-06T07:04:45.765Z,7.7
2022-11-06T07:05:48.850Z,7.6
2022-11-06T07:06:51.808Z,7.7
2022-11-06T07:07:54.799Z,7.7
2022-11-06T07:08:57.901Z,7.7
2022-11-06T07:10:00.686Z,7.7
2022-11-06T07:11:03.855Z,7.7
2022-11-06T07:12:07.024Z,7.8
2022-11-06T07:13:10.303Z,7.8
2022-11-06T07:14:13.327Z,7.8
2022-11-06T07:15:16.566Z,7.8
2022-11-06T07:16:19.941Z,7.8
2022-11-06T07:17:23.313Z,7.8
2022-11-06T07:18:26.123Z,7.8
2022-11-06T07:19:28.846Z,7.9
2022-11-06T07:20:32.557Z,7.9
2022-11-06T07:21:35.436Z,7.9
2022-11-06T07:22:39.422Z,7.9
2022-11-06T07:23:42.522Z,7.9
2022-11-06T07:24:45.633Z,7.9
2022-11-06T07:25:48.976Z,8
2022-11-06T07:26:52.409Z,8
2022-11-06T07:28:03.965Z,8
2022-11-06T07:29:07.644Z,8.1
2022-11-06T07:30:10.146Z,8.1
2022-11-06T07:31:13.508Z,8.1
2022-11-06T07:32:16.838Z,8.1
2022-11-06T07:33:20.222Z,8.2
2022-11-06T07:34:22.963Z,8.1
2022-11-06T07:35:25.766Z,8.1
2022-11-06T07:36:28.464Z,8.2
2022-11-06T07:37:31.479Z,8.2
2022-11-06T07:38:35.358Z,8.1
2022-11-06T07:39:38.227Z,8.2
2022-11-06T07:40:41.297Z,8.2
2022-11-06T07:41:44.292Z,8.3
2022-11-06T07:42:46.897Z,8.3
2022-11-06T07:43:50.616Z,8.2
2022-11-06T07:44:54.074Z,8.3
2022-11-06T07:45:57.346Z,8.3
2022-11-06T07:47:00.857Z,8.3
2022-11-06T07:48:03.748Z,8.4
2022-11-06T07:49:07.114Z,8.4
2022-11-06T07:50:09.671Z,8.4
2022-11-06T07:51:12.198Z,8.4
2022-11-06T07:52:15.997Z,8.4
2022-11-06T07:53:18.986Z,8.4
2022-11-06T07:54:22.454Z,8.4
2022-11-06T07:55:26.165Z,8.4
2022-11-06T07:56:29.535Z,8.4
2022-11-06T07:57:32.605Z,8.5
2022-11-06T07:58:35.418Z,8.5
2022-11-06T07:59:39.153Z,8.5
2022-11-06T08:00:42.534Z,8.5
2022-11-06T08:01:46.883Z,8.5
2022-11-06T08:02:50.648Z,8.5
2022-11-06T08:03:53.554Z,8.6
2022-11-06T08:04:56.732Z,8.6
2022-11-06T08:06:00.342Z,8.6
2022-11-06T08:07:02.946Z,8.7
2022-11-06T08:08:05.656Z,8.6
2022-11-06T08:09:08.188Z,8.6
2022-11-06T08:10:10.712Z,8.7
2022-11-06T08:11:13.624Z,8.6
2022-11-06T08:12:16.528Z,8.6
2022-11-06T08:13:19.327Z,8.7
2022-11-06T08:14:22.410Z,8.7
2022-11-06T08:15:26.186Z,8.7
2022-11-06T08:16:30.209Z,8.8
2022-11-06T08:17:33.558Z,8.8
2022-11-06T08:18:37.380Z,8.8
2022-11-06T08:19:39.922Z,8.8
2022-11-06T08:20:43.256Z,8.8
2022-11-06T08:21:46.075Z,8.8
2022-11-06T08:22:48.794Z,8.9
2022-11-06T08:23:51.405Z,8.9
2022-11-06T08:24:54.832Z,8.9
2022-11-06T08:25:57.841Z,8.9
2022-11-06T08:27:01.298Z,8.9
2022-11-06T08:28:04.097Z,8.9
2022-11-06T08:29:06.612Z,8.9
2022-11-06T08:30:09.325Z,8.9
2022-11-06T08:31:12.612Z,8.9
2022-11-06T08:32:15.723Z,8.9
2022-11-06T08:33:18.903Z,8.9
2022-11-06T08:34:21.532Z,8.9
2022-11-06T08:35:24.358Z,8.8
2022-11-06T08:36:26.877Z,8.9
2022-11-06T08:37:29.739Z,8.9
2022-11-06T08:38:33.437Z,8.9
2022-11-06T08:39:36.242Z,8.9
2022-11-06T08:40:39.495Z,8.9
2022-11-06T08:41:42.324Z,8.9
2022-11-06T08:42:45.476Z,9
2022-11-06T08:43:48.646Z,9
2022-11-06T08:44:51.456Z,9
2022-11-06T08:45:54.798Z,9
2022-11-06T08:46:57.912Z,9
2022-11-06T08:48:01.737Z,9
2022-11-06T08:49:04.645Z,9
2022-11-06T08:50:07.485Z,9
2022-11-06T08:51:10.305Z,9
2022-11-06T08:52:14.050Z,9
2022-11-06T08:53:19.897Z,9
2022-11-06T08:54:23.224Z,9.1
2022-11-06T08:55:26.721Z,9.1
2022-11-06T08:56:29.797Z,9.1
2022-11-06T08:57:32.608Z,9.2
2022-11-06T08:58:36.232Z,9.1
2022-11-06T08:59:39.327Z,9.1
2022-11-06T09:00:42.336Z,9.1
2022-11-06T09:01:46.230Z,9.2
2022-11-06T09:02:49.266Z,9.2
2022-11-06T09:03:52.460Z,9.2
2022-11-06T09:04:55.712Z,9.3
2022-11-06T09:05:58.881Z,9.2
2022-11-06T09:07:02.057Z,9.3
2022-11-06T09:08:04.771Z,9.3
2022-11-06T09:09:07.949Z,9.3
2022-11-06T09:10:10.573Z,9.4
2022-11-06T09:11:13.757Z,9.4
2022-11-06T09:12:16.637Z,9.3
2022-11-06T09:13:20.314Z,9.4
2022-11-06T09:14:23.400Z,9.4
2022-11-06T09:15:26.835Z,9.4
2022-11-06T09:16:29.692Z,9.4
2022-11-06T09:17:32.970Z,9.4
2022-11-06T09:18:36.275Z,9.5
2022-11-06T09:19:40.102Z,9.5
2022-11-06T09:20:43.470Z,9.5
2022-11-06T09:21:56.434Z,9.5
2022-11-06T09:22:59.257Z,9.5
2022-11-06T09:24:01.843Z,9.5
2022-11-06T09:25:06.271Z,9.5
2022-11-06T09:26:08.182Z,9.6
2022-11-06T09:27:10.777Z,9.6
2022-11-06T09:28:14.210Z,9.6
2022-11-06T09:29:17.576Z,9.6
2022-11-06T09:30:20.490Z,9.6
2022-11-06T09:31:24.061Z,9.6
2022-11-06T09:32:27.220Z,9.5
2022-11-06T09:33:29.474Z,9.5
2022-11-06T09:34:33.200Z,9.5
2022-11-06T09:35:36.655Z,9.5
2022-11-06T09:36:39.247Z,9.5
2022-11-06T09:37:43.066Z,9.6
2022-11-06T09:38:46.174Z,9.6
2022-11-06T09:39:49.388Z,9.6
2022-11-06T09:40:52.406Z,9.6
2022-11-06T09:41:55.511Z,9.6
2022-11-06T09:42:58.947Z,9.6
2022-11-06T09:44:08.534Z,9.7
2022-11-06T09:45:11.455Z,9.6
2022-11-06T09:46:14.246Z,9.6
2022-11-06T09:47:17.144Z,9.6
2022-11-06T09:48:19.381Z,9.5
2022-11-06T09:49:21.633Z,9.5
2022-11-06T09:50:25.121Z,9.6
2022-11-06T09:51:29.625Z,9.6
2022-11-06T09:52:34.395Z,9.6
2022-11-06T09:53:38.713Z,9.6
2022-11-06T09:54:42.935Z,9.6
2022-11-06T09:55:47.256Z,9.6
2022-11-06T09:56:50.924Z,9.6
2022-11-06T09:57:54.089Z,9.6
2022-11-06T09:58:56.601Z,9.5
2022-11-06T09:59:59.680Z,9.5
2022-11-06T10:01:02.864Z,9.5
2022-11-06T10:02:07.480Z,9.6
2022-11-06T10:03:10.721Z,9.6
2022-11-06T10:04:13.474Z,9.7
2022-11-06T10:05:16.823Z,9.7
2022-11-06T10:06:19.838Z,9.7
2022-11-06T10:07:23.020Z,9.7
2022-11-06T10:08:26.097Z,9.7
2022-11-06T10:09:28.980Z,9.8
2022-11-06T10:10:32.650Z,9.8
2022-11-06T10:11:35.360Z,9.9
2022-11-06T10:12:38.171Z,10
2022-11-06T10:13:41.164Z,10.1
2022-11-06T10:14:44.540Z,10.3
2022-11-06T10:15:47.263Z,10.3
2022-11-06T10:16:50.185Z,10.5
2022-11-06T10:17:52.883Z,10.7
2022-11-06T10:18:56.001Z,11.1
2022-11-06T10:19:59.282Z,11.1
2022-11-06T10:21:01.882Z,11
2022-11-06T10:22:04.777Z,10.8
2022-11-06T10:23:08.259Z,10.8
2022-11-06T10:24:11.042Z,10.8
2022-11-06T10:25:14.432Z,10.8
2022-11-06T10:26:17.430Z,10.7
2022-11-06T10:27:20.580Z,10.7
2022-11-06T10:28:23.389Z,10.6
2022-11-06T10:29:26.651Z,10.5
2022-11-06T10:30:29.176Z,10.4
2022-11-06T10:31:32.631Z,10.4
2022-11-06T10:32:35.641Z,10.4
2022-11-06T10:33:38.442Z,10.4
2022-11-06T10:34:42.185Z,10.4
2022-11-06T10:35:45.189Z,10.5
2022-11-06T10:36:51.787Z,10.5
2022-11-06T10:37:54.798Z,10.6
2022-11-06T10:38:58.125Z,10.6
2022-11-06T10:40:01.586Z,10.7
2022-11-06T10:41:05.040Z,10.8
2022-11-06T10:42:07.929Z,10.9
2022-11-06T10:43:10.718Z,10.9
2022-11-06T10:44:14.351Z,11.1
2022-11-06T10:45:17.233Z,11.3
2022-11-06T10:46:20.644Z,11.4
2022-11-06T10:47:23.079Z,11.4
2022-11-06T10:48:42.398Z,11.6
2022-11-06T10:49:45.315Z,11.7
2022-11-06T10:50:48.036Z,11.9
2022-11-06T10:51:51.760Z,12.2
2022-11-06T10:52:54.569Z,12.3
2022-11-06T10:53:58.246Z,12.2
2022-11-06T10:55:01.535Z,12.1
2022-11-06T10:56:21.587Z,12.1
2022-11-06T10:57:25.067Z,11.8
2022-11-06T10:58:28.142Z,11.7
2022-11-06T10:59:31.437Z,11.7
2022-11-06T11:00:34.969Z,11.6
2022-11-06T11:01:39.407Z,11.5
2022-11-06T11:02:42.279Z,11.4
2022-11-06T11:03:46.118Z,11.4
2022-11-06T11:04:56.847Z,11.4
2022-11-06T11:06:00.816Z,11.2
2022-11-06T11:07:03.632Z,11.1
2022-11-06T11:08:06.428Z,11.1
2022-11-06T11:09:09.873Z,11.1
2022-11-06T11:10:13.342Z,11.2
2022-11-06T11:11:16.590Z,11.2
2022-11-06T11:12:19.753Z,11.1
2022-11-06T11:13:22.939Z,11.2
2022-11-06T11:14:26.313Z,11.3
2022-11-06T11:15:29.756Z,11.3
2022-11-06T11:16:33.404Z,11.4
2022-11-06T11:17:36.560Z,11.4
2022-11-06T11:18:39.902Z,11.4
2022-11-06T11:19:42.639Z,11.5
2022-11-06T11:20:45.531Z,11.5
2022-11-06T11:21:48.903Z,11.6
2022-11-06T11:22:52.427Z,11.9
2022-11-06T11:23:54.919Z,12.2
2022-11-06T11:24:58.294Z,12.6
2022-11-06T11:26:02.123Z,12.8
2022-11-06T11:27:05.594Z,13
2022-11-06T11:28:08.662Z,13.2
2022-11-06T11:29:12.442Z,13.3
2022-11-06T11:30:15.546Z,13.4
2022-11-06T11:31:18.746Z,13.2
2022-11-06T11:32:21.903Z,13
2022-11-06T11:33:24.498Z,12.9
2022-11-06T11:34:27.378Z,13
2022-11-06T11:35:30.271Z,13.2
2022-11-06T11:36:33.365Z,13.4
2022-11-06T11:37:36.379Z,13.4
2022-11-06T11:38:38.818Z,13.6
2022-11-06T11:39:42.437Z,13.7
2022-11-06T11:40:45.367Z,13.8
2022-11-06T11:41:48.469Z,13.9
2022-11-06T11:42:51.466Z,13.8
2022-11-06T11:43:54.995Z,14
2022-11-06T11:44:58.260Z,14.2
2022-11-06T11:46:00.981Z,14.3
2022-11-06T11:47:10.371Z,14.4
2022-11-06T11:48:15.392Z,14.5
2022-11-06T11:49:18.936Z,14.6
2022-11-06T11:50:22.122Z,14.4
2022-11-06T11:51:24.725Z,14.1
2022-11-06T11:52:27.836Z,14.1
2022-11-06T11:53:30.556Z,14.2
2022-11-06T11:54:33.626Z,14.2
2022-11-06T11:55:36.632Z,14.2
2022-11-06T11:57:08.701Z,14.3
2022-11-06T11:58:13.302Z,14.6
2022-11-06T11:59:16.165Z,14.8
2022-11-06T12:00:19.748Z,14.9
2022-11-06T12:01:23.440Z,15
2022-11-06T12:02:30.662Z,15
2022-11-06T12:03:33.407Z,15
2022-11-06T12:04:36.518Z,15.1
2022-11-06T12:05:39.032Z,15
2022-11-06T12:06:42.131Z,14.9
2022-11-06T12:07:47.926Z,14.9
2022-11-06T12:08:51.281Z,14.7
2022-11-06T12:09:54.146Z,14.6
2022-11-06T12:10:56.889Z,14.7
2022-11-06T12:12:00.051Z,14.6
2022-11-06T12:13:02.866Z,14.7
2022-11-06T12:14:06.048Z,14.6
2022-11-06T12:15:09.133Z,14.8
2022-11-06T12:16:12.711Z,14.7
2022-11-06T12:17:15.973Z,14.8
2022-11-06T12:18:19.053Z,14.8
2022-11-06T12:19:22.050Z,14.9
2022-11-06T12:20:25.408Z,15
2022-11-06T12:21:27.924Z,15.2
2022-11-06T12:22:30.941Z,15.3
2022-11-06T12:23:34.234Z,15.3
2022-11-06T12:24:37.039Z,15.3
2022-11-06T12:25:39.861Z,15.5
2022-11-06T12:26:42.691Z,15.4
2022-11-06T12:27:44.936Z,15.5
2022-11-06T12:28:47.559Z,15.6
2022-11-06T12:29:51.217Z,15.8
2022-11-06T12:30:54.665Z,15.8
2022-11-06T12:31:58.416Z,15.8
2022-11-06T12:33:01.481Z,15.8
2022-11-06T12:34:18.648Z,15.6
2022-11-06T12:35:21.105Z,15.7
2022-11-06T12:36:24.451Z,15.8
2022-11-06T12:37:26.624Z,15.8
2022-11-06T12:38:29.650Z,15.7
2022-11-06T12:39:32.529Z,15.6
2022-11-06T12:40:35.246Z,15.6
2022-11-06T12:41:38.312Z,15.6
2022-11-06T12:42:41.740Z,15.5
2022-11-06T12:43:45.179Z,15.3
2022-11-06T12:44:48.451Z,15.3
2022-11-06T12:45:52.460Z,15.3
2022-11-06T12:46:55.888Z,15.2
2022-11-06T12:48:00.374Z,15.1
2022-11-06T12:49:03.371Z,15.2
2022-11-06T12:50:06.598Z,15.1
2022-11-06T12:51:09.122Z,15.1
2022-11-06T12:52:12.546Z,15.1
2022-11-06T12:53:15.738Z,15.1
2022-11-06T12:54:19.222Z,15.1
2022-11-06T12:55:22.607Z,15
2022-11-06T12:56:25.757Z,14.9
2022-11-06T12:57:28.276Z,14.8
2022-11-06T12:58:31.366Z,14.6
2022-11-06T12:59:34.829Z,14.6
2022-11-06T13:00:38.215Z,14.7
2022-11-06T13:01:42.250Z,14.8
2022-11-06T13:02:45.937Z,14.7
2022-11-06T13:03:49.994Z,14.7
2022-11-06T13:04:53.144Z,14.6
2022-11-06T13:05:56.603Z,14.6
2022-11-06T13:06:59.133Z,14.6
2022-11-06T13:08:02.207Z,14.6
2022-11-06T13:09:05.281Z,14.6
2022-11-06T13:10:08.263Z,14.5
2022-11-06T13:11:11.796Z,14.5
2022-11-06T13:12:15.222Z,14.5
2022-11-06T13:13:18.294Z,14.5
2022-11-06T13:14:20.755Z,14.6
2022-11-06T13:15:23.359Z,14.5
2022-11-06T13:16:26.836Z,14.5
2022-11-06T13:17:29.746Z,14.5
2022-11-06T13:18:32.885Z,14.4
2022-11-06T13:19:36.547Z,14.4
2022-11-06T13:20:39.621Z,14.2
2022-11-06T13:21:42.878Z,14.1
2022-11-06T13:22:45.949Z,14.1
2022-11-06T13:23:49.405Z,13.9
2022-11-06T13:24:52.201Z,13.7
2022-11-06T13:25:55.675Z,13.7
2022-11-06T13:26:59.055Z,13.8
2022-11-06T13:28:02.241Z,13.6
2022-11-06T13:29:04.825Z,13.4
2022-11-06T13:30:08.340Z,13.4
2022-11-06T13:31:11.139Z,13.3
2022-11-06T13:32:14.620Z,13.2
2022-11-06T13:33:18.363Z,13.2
2022-11-06T13:34:21.737Z,13.1
2022-11-06T13:35:24.942Z,13.1
2022-11-06T13:36:27.447Z,13.2
2022-11-06T13:37:30.557Z,13.1
2022-11-06T13:38:33.074Z,13.1
2022-11-06T13:39:36.144Z,13
2022-11-06T13:40:38.956Z,13
2022-11-06T13:41:42.045Z,13
2022-11-06T13:42:44.658Z,13.1
2022-11-06T13:43:47.371Z,13.1
2022-11-06T13:44:50.167Z,13.1
2022-11-06T13:45:52.599Z,13.1
2022-11-06T13:46:55.118Z,13.1
2022-11-06T13:47:57.531Z,13.1
2022-11-06T13:49:00.993Z,13.1
2022-11-06T13:50:03.786Z,13.1
2022-11-06T13:51:07.322Z,13
2022-11-06T13:52:10.491Z,12.9
2022-11-06T13:53:12.954Z,13
2022-11-06T13:54:16.230Z,12.9
2022-11-06T13:55:19.057Z,12.9
2022-11-06T13:56:21.812Z,13
2022-11-06T13:57:24.275Z,12.9
2022-11-06T13:58:26.794Z,12.9
2022-11-06T13:59:35.965Z,12.8
2022-11-06T14:00:38.766Z,12.8
2022-11-06T14:01:42.560Z,12.9
2022-11-06T14:02:46.426Z,12.8
2022-11-06T14:03:50.323Z,12.8
2022-11-06T14:04:55.585Z,12.8
2022-11-06T14:05:58.713Z,12.7
2022-11-06T14:07:02.217Z,12.6
2022-11-06T14:08:05.078Z,12.6
2022-11-06T14:09:08.377Z,12.6
2022-11-06T14:10:10.983Z,12.5
2022-11-06T14:11:14.071Z,12.4
2022-11-06T14:12:17.594Z,12.5
2022-11-06T14:13:20.930Z,12.4
2022-11-06T14:14:23.576Z,12.4
2022-11-06T14:15:26.543Z,12.5
2022-11-06T14:16:29.735Z,12.5
2022-11-06T14:17:32.801Z,12.4
2022-11-06T14:18:35.911Z,12.5
2022-11-06T14:19:39.512Z,12.4
2022-11-06T14:20:42.354Z,12.4
2022-11-06T14:21:45.060Z,12.4
2022-11-06T14:22:48.927Z,12.4
2022-11-06T14:23:52.063Z,12.4
2022-11-06T14:25:03.604Z,12.4
2022-11-06T14:26:06.943Z,12.4
2022-11-06T14:27:10.445Z,12.5